sensor_id;sensor_type;location;lat;lon;timestamp;P1;durP1;ratioP1;P2;durP2;ratioP2
6336;SDS011;3201;49.962;11.618;2022-12-07T00:03:44;1.10;;;0.93;;
6336;SDS011;3201;49.962;11.618;2022-12-07T00:06:12;1.20;;;1.10;;
6336;SDS011;3201;49.962;11.618;2022-12-07T00:08:38;1.43;;;1.00;;
6336;SDS011;3201;49.962;11.618;2022-12-07T00:11:06;1.20;;;1.10;;
6336;SDS011;3201;49.962;11.618;2022-12-07T00:13:32;1.50;;;1.30;;
6336;SDS011;3201;49.962;11.618;2022-12-07T00:16:06;1.20;;;1.10;;
6336;SDS011;3201;49.962;11.618;2022-12-07T00:18:33;1.10;;;1.00;;
6336;SDS011;3201;49.962;11.618;2022-12-07T00:20:59;1.63;;;1.10;;
6336;SDS011;3201;49.962;11.618;2022-12-07T00:23:26;1.57;;;0.90;;
6336;SDS011;3201;49.962;11.618;2022-12-07T00:25:51;1.27;;;1.00;;
6336;SDS011;3201;49.962;11.618;2022-12-07T00:28:17;1.00;;;0.83;;
6336;SDS011;3201;49.962;11.618;2022-12-07T00:30:42;1.27;;;0.90;;
6336;SDS011;3201;49.962;11.618;2022-12-07T00:33:07;1.03;;;0.80;;
6336;SDS011;3201;49.962;11.618;2022-12-07T00:35:32;1.23;;;1.13;;
6336;SDS011;3201;49.962;11.618;2022-12-07T00:37:58;1.20;;;0.90;;
6336;SDS011;3201;49.962;11.618;2022-12-07T00:40:23;1.00;;;0.80;;
6336;SDS011;3201;49.962;11.618;2022-12-07T00:42:48;0.97;;;0.90;;
6336;SDS011;3201;49.962;11.618;2022-12-07T00:45:14;1.13;;;1.03;;
6336;SDS011;3201;49.962;11.618;2022-12-07T00:47:39;1.17;;;1.07;;
6336;SDS011;3201;49.962;11.618;2022-12-07T00:50:04;1.60;;;1.33;;
6336;SDS011;3201;49.962;11.618;2022-12-07T00:52:30;1.20;;;0.93;;
6336;SDS011;3201;49.962;11.618;2022-12-07T00:54:55;1.10;;;1.00;;
6336;SDS011;3201;49.962;11.618;2022-12-07T00:57:21;1.20;;;0.90;;
6336;SDS011;3201;49.962;11.618;2022-12-07T00:59:46;0.83;;;0.83;;
6336;SDS011;3201;49.962;11.618;2022-12-07T01:02:11;0.90;;;0.80;;
6336;SDS011;3201;49.962;11.618;2022-12-07T01:04:37;1.10;;;1.00;;
6336;SDS011;3201;49.962;11.618;2022-12-07T01:07:02;1.67;;;1.30;;
6336;SDS011;3201;49.962;11.618;2022-12-07T01:09:27;1.07;;;0.97;;
6336;SDS011;3201;49.962;11.618;2022-12-07T01:11:52;1.20;;;1.10;;
6336;SDS011;3201;49.962;11.618;2022-12-07T01:14:18;1.00;;;0.93;;
6336;SDS011;3201;49.962;11.618;2022-12-07T01:16:43;1.10;;;0.90;;
6336;SDS011;3201;49.962;11.618;2022-12-07T01:19:08;1.20;;;1.10;;
6336;SDS011;3201;49.962;11.618;2022-12-07T01:21:34;1.07;;;0.97;;
6336;SDS011;3201;49.962;11.618;2022-12-07T01:24:02;1.00;;;1.00;;
6336;SDS011;3201;49.962;11.618;2022-12-07T01:26:28;1.80;;;1.10;;
6336;SDS011;3201;49.962;11.618;2022-12-07T01:28:54;0.97;;;0.87;;
6336;SDS011;3201;49.962;11.618;2022-12-07T01:31:20;1.77;;;0.83;;
6336;SDS011;3201;49.962;11.618;2022-12-07T01:33:48;0.90;;;0.80;;
6336;SDS011;3201;49.962;11.618;2022-12-07T01:36:31;0.83;;;0.83;;
6336;SDS011;3201;49.962;11.618;2022-12-07T01:39:02;1.17;;;0.90;;
6336;SDS011;3201;49.962;11.618;2022-12-07T01:41:31;0.70;;;0.70;;
6336;SDS011;3201;49.962;11.618;2022-12-07T01:44:29;0.80;;;0.80;;
6336;SDS011;3201;49.962;11.618;2022-12-07T01:46:51;0.80;;;0.70;;
6336;SDS011;3201;49.962;11.618;2022-12-07T01:49:20;1.00;;;0.83;;
6336;SDS011;3201;49.962;11.618;2022-12-07T01:51:50;0.93;;;0.87;;
6336;SDS011;3201;49.962;11.618;2022-12-07T01:54:17;1.43;;;1.33;;
6336;SDS011;3201;49.962;11.618;2022-12-07T01:56:44;0.80;;;0.80;;
6336;SDS011;3201;49.962;11.618;2022-12-07T01:59:13;1.07;;;0.97;;
6336;SDS011;3201;49.962;11.618;2022-12-07T02:01:40;1.10;;;1.00;;
6336;SDS011;3201;49.962;11.618;2022-12-07T02:04:05;1.20;;;0.90;;
6336;SDS011;3201;49.962;11.618;2022-12-07T02:06:30;0.73;;;0.63;;
6336;SDS011;3201;49.962;11.618;2022-12-07T02:08:56;0.80;;;0.80;;
6336;SDS011;3201;49.962;11.618;2022-12-07T02:11:21;0.97;;;0.87;;
6336;SDS011;3201;49.962;11.618;2022-12-07T02:13:47;1.00;;;0.80;;
6336;SDS011;3201;49.962;11.618;2022-12-07T02:19:06;0.80;;;0.80;;
6336;SDS011;3201;49.962;11.618;2022-12-07T02:28:33;1.00;;;0.90;;
6336;SDS011;3201;49.962;11.618;2022-12-07T02:30:22;0.70;;;0.70;;
6336;SDS011;3201;49.962;11.618;2022-12-07T02:33:04;0.80;;;0.77;;
6336;SDS011;3201;49.962;11.618;2022-12-07T02:36:32;0.80;;;0.80;;
6336;SDS011;3201;49.962;11.618;2022-12-07T02:40:54;1.20;;;0.90;;
6336;SDS011;3201;49.962;11.618;2022-12-07T02:43:23;1.70;;;0.90;;
6336;SDS011;3201;49.962;11.618;2022-12-07T02:45:51;1.00;;;0.93;;
6336;SDS011;3201;49.962;11.618;2022-12-07T02:48:18;0.97;;;0.90;;
6336;SDS011;3201;49.962;11.618;2022-12-07T02:50:44;0.90;;;0.90;;
6336;SDS011;3201;49.962;11.618;2022-12-07T02:53:29;1.00;;;1.00;;
6336;SDS011;3201;49.962;11.618;2022-12-07T02:55:56;0.80;;;0.70;;
6336;SDS011;3201;49.962;11.618;2022-12-07T02:58:25;0.80;;;0.73;;
6336;SDS011;3201;49.962;11.618;2022-12-07T03:01:04;0.60;;;0.60;;
6336;SDS011;3201;49.962;11.618;2022-12-07T03:03:32;0.77;;;0.77;;
6336;SDS011;3201;49.962;11.618;2022-12-07T03:08:30;1.27;;;0.80;;
6336;SDS011;3201;49.962;11.618;2022-12-07T03:16:00;1.10;;;0.97;;
6336;SDS011;3201;49.962;11.618;2022-12-07T03:18:29;1.63;;;0.90;;
6336;SDS011;3201;49.962;11.618;2022-12-07T03:20:57;1.63;;;0.83;;
6336;SDS011;3201;49.962;11.618;2022-12-07T03:23:26;1.20;;;0.90;;
6336;SDS011;3201;49.962;11.618;2022-12-07T03:25:52;1.27;;;0.87;;
6336;SDS011;3201;49.962;11.618;2022-12-07T03:28:22;1.00;;;0.90;;
6336;SDS011;3201;49.962;11.618;2022-12-07T03:30:52;1.33;;;1.13;;
6336;SDS011;3201;49.962;11.618;2022-12-07T03:33:22;1.00;;;0.80;;
6336;SDS011;3201;49.962;11.618;2022-12-07T03:35:52;1.03;;;0.90;;
6336;SDS011;3201;49.962;11.618;2022-12-07T03:38:28;0.87;;;0.87;;
6336;SDS011;3201;49.962;11.618;2022-12-07T03:43:32;0.97;;;0.87;;
6336;SDS011;3201;49.962;11.618;2022-12-07T03:51:25;1.40;;;1.23;;
6336;SDS011;3201;49.962;11.618;2022-12-07T03:53:59;1.20;;;0.70;;
6336;SDS011;3201;49.962;11.618;2022-12-07T03:56:27;1.33;;;1.23;;
6336;SDS011;3201;49.962;11.618;2022-12-07T03:58:53;1.27;;;1.10;;
6336;SDS011;3201;49.962;11.618;2022-12-07T04:01:19;1.30;;;1.20;;
6336;SDS011;3201;49.962;11.618;2022-12-07T04:03:44;1.77;;;1.10;;
6336;SDS011;3201;49.962;11.618;2022-12-07T04:06:10;1.10;;;0.80;;
6336;SDS011;3201;49.962;11.618;2022-12-07T04:08:35;1.37;;;1.27;;
6336;SDS011;3201;49.962;11.618;2022-12-07T04:11:01;0.87;;;0.77;;
6336;SDS011;3201;49.962;11.618;2022-12-07T04:13:26;0.87;;;0.87;;
6336;SDS011;3201;49.962;11.618;2022-12-07T04:15:52;1.13;;;0.80;;
6336;SDS011;3201;49.962;11.618;2022-12-07T04:18:17;0.80;;;0.80;;
6336;SDS011;3201;49.962;11.618;2022-12-07T04:20:42;1.13;;;1.07;;
6336;SDS011;3201;49.962;11.618;2022-12-07T04:23:07;1.10;;;0.90;;
6336;SDS011;3201;49.962;11.618;2022-12-07T04:25:33;1.33;;;1.10;;
6336;SDS011;3201;49.962;11.618;2022-12-07T04:27:58;1.10;;;1.00;;
6336;SDS011;3201;49.962;11.618;2022-12-07T04:30:23;1.13;;;1.03;;
6336;SDS011;3201;49.962;11.618;2022-12-07T04:32:49;1.10;;;1.00;;
6336;SDS011;3201;49.962;11.618;2022-12-07T04:35:14;1.27;;;1.07;;
6336;SDS011;3201;49.962;11.618;2022-12-07T04:37:39;0.73;;;0.73;;
6336;SDS011;3201;49.962;11.618;2022-12-07T04:40:06;0.90;;;0.80;;
6336;SDS011;3201;49.962;11.618;2022-12-07T04:42:32;0.90;;;0.90;;
6336;SDS011;3201;49.962;11.618;2022-12-07T04:44:58;1.30;;;1.20;;
6336;SDS011;3201;49.962;11.618;2022-12-07T04:47:23;1.43;;;1.20;;
6336;SDS011;3201;49.962;11.618;2022-12-07T04:49:48;0.90;;;0.90;;
6336;SDS011;3201;49.962;11.618;2022-12-07T04:52:14;1.00;;;0.90;;
6336;SDS011;3201;49.962;11.618;2022-12-07T04:54:39;1.00;;;0.90;;
6336;SDS011;3201;49.962;11.618;2022-12-07T04:57:04;1.00;;;1.00;;
6336;SDS011;3201;49.962;11.618;2022-12-07T04:59:29;1.03;;;0.90;;
6336;SDS011;3201;49.962;11.618;2022-12-07T05:01:55;0.80;;;0.80;;
6336;SDS011;3201;49.962;11.618;2022-12-07T05:04:20;1.03;;;0.93;;
6336;SDS011;3201;49.962;11.618;2022-12-07T05:06:45;1.37;;;1.27;;
6336;SDS011;3201;49.962;11.618;2022-12-07T05:09:11;0.90;;;0.90;;
6336;SDS011;3201;49.962;11.618;2022-12-07T05:11:36;1.07;;;1.00;;
6336;SDS011;3201;49.962;11.618;2022-12-07T05:14:03;1.13;;;0.90;;
6336;SDS011;3201;49.962;11.618;2022-12-07T05:16:32;1.40;;;1.30;;
6336;SDS011;3201;49.962;11.618;2022-12-07T05:18:57;1.10;;;1.00;;
6336;SDS011;3201;49.962;11.618;2022-12-07T05:21:23;1.30;;;1.20;;
6336;SDS011;3201;49.962;11.618;2022-12-07T05:23:48;1.20;;;1.10;;
6336;SDS011;3201;49.962;11.618;2022-12-07T05:26:13;1.00;;;0.90;;
6336;SDS011;3201;49.962;11.618;2022-12-07T05:28:39;0.90;;;0.90;;
6336;SDS011;3201;49.962;11.618;2022-12-07T05:31:04;0.90;;;0.80;;
6336;SDS011;3201;49.962;11.618;2022-12-07T05:33:29;1.10;;;1.00;;
6336;SDS011;3201;49.962;11.618;2022-12-07T05:35:55;1.10;;;1.00;;
6336;SDS011;3201;49.962;11.618;2022-12-07T05:38:20;1.10;;;1.00;;
6336;SDS011;3201;49.962;11.618;2022-12-07T05:40:45;0.80;;;0.80;;
6336;SDS011;3201;49.962;11.618;2022-12-07T05:43:11;1.00;;;0.80;;
6336;SDS011;3201;49.962;11.618;2022-12-07T05:45:36;1.20;;;1.10;;
6336;SDS011;3201;49.962;11.618;2022-12-07T05:48:01;1.17;;;1.07;;
6336;SDS011;3201;49.962;11.618;2022-12-07T05:50:27;1.30;;;1.03;;
6336;SDS011;3201;49.962;11.618;2022-12-07T05:52:53;1.07;;;0.97;;
6336;SDS011;3201;49.962;11.618;2022-12-07T05:55:18;1.03;;;0.90;;
6336;SDS011;3201;49.962;11.618;2022-12-07T05:57:44;0.97;;;0.87;;
6336;SDS011;3201;49.962;11.618;2022-12-07T06:00:29;1.37;;;1.00;;
6336;SDS011;3201;49.962;11.618;2022-12-07T06:02:54;1.37;;;1.20;;
6336;SDS011;3201;49.962;11.618;2022-12-07T06:05:20;1.13;;;0.77;;
6336;SDS011;3201;49.962;11.618;2022-12-07T06:07:45;0.93;;;0.93;;
6336;SDS011;3201;49.962;11.618;2022-12-07T06:10:10;1.20;;;1.10;;
6336;SDS011;3201;49.962;11.618;2022-12-07T06:12:35;1.23;;;1.13;;
6336;SDS011;3201;49.962;11.618;2022-12-07T06:15:03;1.07;;;0.97;;
6336;SDS011;3201;49.962;11.618;2022-12-07T06:17:29;1.20;;;1.00;;
6336;SDS011;3201;49.962;11.618;2022-12-07T06:19:54;1.00;;;1.00;;
6336;SDS011;3201;49.962;11.618;2022-12-07T06:22:19;0.90;;;0.87;;
6336;SDS011;3201;49.962;11.618;2022-12-07T06:24:45;1.10;;;1.00;;
6336;SDS011;3201;49.962;11.618;2022-12-07T06:27:10;1.00;;;1.00;;
6336;SDS011;3201;49.962;11.618;2022-12-07T06:29:35;1.17;;;1.07;;
6336;SDS011;3201;49.962;11.618;2022-12-07T06:32:01;1.40;;;1.30;;
6336;SDS011;3201;49.962;11.618;2022-12-07T06:34:27;1.07;;;0.90;;
6336;SDS011;3201;49.962;11.618;2022-12-07T06:36:52;1.67;;;1.57;;
6336;SDS011;3201;49.962;11.618;2022-12-07T06:39:19;1.20;;;1.00;;
6336;SDS011;3201;49.962;11.618;2022-12-07T06:41:44;0.90;;;0.70;;
6336;SDS011;3201;49.962;11.618;2022-12-07T06:44:10;1.40;;;1.30;;
6336;SDS011;3201;49.962;11.618;2022-12-07T06:46:35;0.90;;;0.80;;
6336;SDS011;3201;49.962;11.618;2022-12-07T06:49:01;0.87;;;0.83;;
6336;SDS011;3201;49.962;11.618;2022-12-07T06:51:26;1.00;;;0.83;;
6336;SDS011;3201;49.962;11.618;2022-12-07T06:53:52;1.30;;;1.20;;
6336;SDS011;3201;49.962;11.618;2022-12-07T06:56:17;1.80;;;1.13;;
6336;SDS011;3201;49.962;11.618;2022-12-07T06:58:42;0.93;;;0.93;;
6336;SDS011;3201;49.962;11.618;2022-12-07T07:01:10;1.17;;;0.87;;
6336;SDS011;3201;49.962;11.618;2022-12-07T07:03:37;1.07;;;0.97;;
6336;SDS011;3201;49.962;11.618;2022-12-07T07:06:03;1.30;;;1.10;;
6336;SDS011;3201;49.962;11.618;2022-12-07T07:08:28;1.20;;;1.10;;
6336;SDS011;3201;49.962;11.618;2022-12-07T07:10:53;0.90;;;0.80;;
6336;SDS011;3201;49.962;11.618;2022-12-07T07:13:19;1.60;;;1.20;;
6336;SDS011;3201;49.962;11.618;2022-12-07T07:15:44;1.33;;;1.17;;
6336;SDS011;3201;49.962;11.618;2022-12-07T07:18:09;1.13;;;1.03;;
6336;SDS011;3201;49.962;11.618;2022-12-07T07:20:35;1.23;;;1.00;;
6336;SDS011;3201;49.962;11.618;2022-12-07T07:23:01;1.20;;;1.00;;
6336;SDS011;3201;49.962;11.618;2022-12-07T07:25:26;0.87;;;0.87;;
6336;SDS011;3201;49.962;11.618;2022-12-07T07:27:51;0.90;;;0.90;;
6336;SDS011;3201;49.962;11.618;2022-12-07T07:30:17;3.23;;;1.00;;
6336;SDS011;3201;49.962;11.618;2022-12-07T07:32:42;1.10;;;1.00;;
6336;SDS011;3201;49.962;11.618;2022-12-07T07:35:07;2.53;;;1.03;;
6336;SDS011;3201;49.962;11.618;2022-12-07T07:37:33;0.90;;;0.80;;
6336;SDS011;3201;49.962;11.618;2022-12-07T07:39:58;2.00;;;1.47;;
6336;SDS011;3201;49.962;11.618;2022-12-07T07:42:24;2.67;;;1.47;;
6336;SDS011;3201;49.962;11.618;2022-12-07T07:44:49;1.80;;;0.90;;
6336;SDS011;3201;49.962;11.618;2022-12-07T07:47:14;2.87;;;1.40;;
6336;SDS011;3201;49.962;11.618;2022-12-07T07:49:40;1.23;;;1.13;;
6336;SDS011;3201;49.962;11.618;2022-12-07T07:52:05;2.30;;;1.00;;
6336;SDS011;3201;49.962;11.618;2022-12-07T07:54:31;1.50;;;1.40;;
6336;SDS011;3201;49.962;11.618;2022-12-07T07:56:56;1.60;;;1.30;;
6336;SDS011;3201;49.962;11.618;2022-12-07T07:59:21;1.60;;;1.50;;
6336;SDS011;3201;49.962;11.618;2022-12-07T08:01:47;1.43;;;1.10;;
6336;SDS011;3201;49.962;11.618;2022-12-07T08:04:16;2.97;;;1.53;;
6336;SDS011;3201;49.962;11.618;2022-12-07T08:06:41;1.77;;;1.57;;
6336;SDS011;3201;49.962;11.618;2022-12-07T08:09:07;1.50;;;1.40;;
6336;SDS011;3201;49.962;11.618;2022-12-07T08:11:33;3.40;;;1.80;;
6336;SDS011;3201;49.962;11.618;2022-12-07T08:13:58;1.77;;;1.50;;
6336;SDS011;3201;49.962;11.618;2022-12-07T08:16:24;1.30;;;1.20;;
6336;SDS011;3201;49.962;11.618;2022-12-07T08:18:49;1.50;;;1.33;;
6336;SDS011;3201;49.962;11.618;2022-12-07T08:21:14;1.30;;;1.20;;
6336;SDS011;3201;49.962;11.618;2022-12-07T08:23:40;1.63;;;1.33;;
6336;SDS011;3201;49.962;11.618;2022-12-07T08:26:07;1.70;;;1.60;;
6336;SDS011;3201;49.962;11.618;2022-12-07T08:28:34;1.40;;;1.30;;
6336;SDS011;3201;49.962;11.618;2022-12-07T08:31:00;1.37;;;1.27;;
6336;SDS011;3201;49.962;11.618;2022-12-07T08:33:25;3.07;;;1.30;;
6336;SDS011;3201;49.962;11.618;2022-12-07T08:35:51;2.50;;;1.00;;
6336;SDS011;3201;49.962;11.618;2022-12-07T08:38:16;2.40;;;1.50;;
6336;SDS011;3201;49.962;11.618;2022-12-07T08:40:41;1.50;;;1.40;;
6336;SDS011;3201;49.962;11.618;2022-12-07T08:43:07;1.27;;;1.17;;
6336;SDS011;3201;49.962;11.618;2022-12-07T08:45:32;1.40;;;1.20;;
6336;SDS011;3201;49.962;11.618;2022-12-07T08:48:03;1.37;;;1.27;;
6336;SDS011;3201;49.962;11.618;2022-12-07T08:50:31;2.83;;;1.50;;
6336;SDS011;3201;49.962;11.618;2022-12-07T08:52:57;1.43;;;1.30;;
6336;SDS011;3201;49.962;11.618;2022-12-07T08:55:24;2.13;;;1.30;;
6336;SDS011;3201;49.962;11.618;2022-12-07T08:57:49;2.70;;;1.53;;
6336;SDS011;3201;49.962;11.618;2022-12-07T09:00:15;3.10;;;1.50;;
6336;SDS011;3201;49.962;11.618;2022-12-07T09:02:42;5.83;;;1.80;;
6336;SDS011;3201;49.962;11.618;2022-12-07T09:05:08;1.90;;;1.80;;
6336;SDS011;3201;49.962;11.618;2022-12-07T09:07:34;4.40;;;1.63;;
6336;SDS011;3201;49.962;11.618;2022-12-07T09:09:59;4.70;;;2.10;;
6336;SDS011;3201;49.962;11.618;2022-12-07T09:12:25;1.77;;;1.53;;
6336;SDS011;3201;49.962;11.618;2022-12-07T09:14:50;2.73;;;1.70;;
6336;SDS011;3201;49.962;11.618;2022-12-07T09:17:15;1.97;;;1.77;;
6336;SDS011;3201;49.962;11.618;2022-12-07T09:19:41;2.83;;;1.57;;
6336;SDS011;3201;49.962;11.618;2022-12-07T09:22:07;4.23;;;1.27;;
6336;SDS011;3201;49.962;11.618;2022-12-07T09:24:33;4.43;;;1.80;;
6336;SDS011;3201;49.962;11.618;2022-12-07T09:26:58;2.80;;;1.70;;
6336;SDS011;3201;49.962;11.618;2022-12-07T09:29:23;1.93;;;1.73;;
6336;SDS011;3201;49.962;11.618;2022-12-07T09:31:49;1.50;;;1.40;;
6336;SDS011;3201;49.962;11.618;2022-12-07T09:34:14;2.70;;;1.83;;
6336;SDS011;3201;49.962;11.618;2022-12-07T09:36:39;3.20;;;1.70;;
6336;SDS011;3201;49.962;11.618;2022-12-07T09:39:05;6.77;;;1.80;;
6336;SDS011;3201;49.962;11.618;2022-12-07T09:41:31;3.33;;;1.63;;
6336;SDS011;3201;49.962;11.618;2022-12-07T09:44:00;2.80;;;2.13;;
6336;SDS011;3201;49.962;11.618;2022-12-07T09:46:28;5.57;;;1.60;;
6336;SDS011;3201;49.962;11.618;2022-12-07T09:48:59;1.93;;;1.73;;
6336;SDS011;3201;49.962;11.618;2022-12-07T09:51:25;5.80;;;2.00;;
6336;SDS011;3201;49.962;11.618;2022-12-07T09:53:50;2.80;;;1.80;;
6336;SDS011;3201;49.962;11.618;2022-12-07T09:56:17;3.83;;;1.63;;
6336;SDS011;3201;49.962;11.618;2022-12-07T09:58:44;1.73;;;1.43;;
6336;SDS011;3201;49.962;11.618;2022-12-07T10:01:13;2.17;;;1.73;;
6336;SDS011;3201;49.962;11.618;2022-12-07T10:03:42;6.40;;;1.60;;
6336;SDS011;3201;49.962;11.618;2022-12-07T10:06:13;3.60;;;1.63;;
6336;SDS011;3201;49.962;11.618;2022-12-07T10:08:39;5.27;;;2.17;;
6336;SDS011;3201;49.962;11.618;2022-12-07T10:11:06;2.87;;;1.63;;
6336;SDS011;3201;49.962;11.618;2022-12-07T10:16:05;2.10;;;1.63;;
6336;SDS011;3201;49.962;11.618;2022-12-07T10:21:02;3.17;;;2.07;;
6336;SDS011;3201;49.962;11.618;2022-12-07T10:23:32;2.90;;;1.23;;
6336;SDS011;3201;49.962;11.618;2022-12-07T10:25:58;1.80;;;1.50;;
6336;SDS011;3201;49.962;11.618;2022-12-07T10:28:27;1.20;;;1.10;;
6336;SDS011;3201;49.962;11.618;2022-12-07T10:31:00;1.90;;;1.60;;
6336;SDS011;3201;49.962;11.618;2022-12-07T10:33:36;1.77;;;1.30;;
6336;SDS011;3201;49.962;11.618;2022-12-07T10:36:36;2.90;;;1.17;;
6336;SDS011;3201;49.962;11.618;2022-12-07T10:38:51;2.67;;;1.40;;
6336;SDS011;3201;49.962;11.618;2022-12-07T10:41:18;2.77;;;1.37;;
6336;SDS011;3201;49.962;11.618;2022-12-07T10:43:46;1.60;;;1.40;;
6336;SDS011;3201;49.962;11.618;2022-12-07T10:46:18;5.60;;;1.47;;
6336;SDS011;3201;49.962;11.618;2022-12-07T10:48:59;3.43;;;1.67;;
6336;SDS011;3201;49.962;11.618;2022-12-07T10:51:38;2.20;;;2.00;;
6336;SDS011;3201;49.962;11.618;2022-12-07T10:59:45;2.00;;;1.37;;
6336;SDS011;3201;49.962;11.618;2022-12-07T11:05:26;2.17;;;1.20;;
6336;SDS011;3201;49.962;11.618;2022-12-07T11:16:02;2.97;;;1.87;;
6336;SDS011;3201;49.962;11.618;2022-12-07T11:18:24;2.60;;;1.20;;
6336;SDS011;3201;49.962;11.618;2022-12-07T11:20:57;2.90;;;1.53;;
6336;SDS011;3201;49.962;11.618;2022-12-07T11:26:09;1.30;;;1.20;;
6336;SDS011;3201;49.962;11.618;2022-12-07T11:34:03;3.10;;;1.30;;
6336;SDS011;3201;49.962;11.618;2022-12-07T11:36:44;5.20;;;1.70;;
6336;SDS011;3201;49.962;11.618;2022-12-07T11:39:16;1.87;;;1.40;;
6336;SDS011;3201;49.962;11.618;2022-12-07T11:41:49;1.70;;;1.60;;
6336;SDS011;3201;49.962;11.618;2022-12-07T11:44:35;3.20;;;1.67;;
6336;SDS011;3201;49.962;11.618;2022-12-07T11:47:06;1.97;;;1.63;;
6336;SDS011;3201;49.962;11.618;2022-12-07T11:49:39;1.97;;;1.37;;
6336;SDS011;3201;49.962;11.618;2022-12-07T11:52:11;4.03;;;1.20;;
6336;SDS011;3201;49.962;11.618;2022-12-07T11:54:42;4.50;;;1.53;;
6336;SDS011;3201;49.962;11.618;2022-12-07T11:57:12;1.63;;;1.53;;
6336;SDS011;3201;49.962;11.618;2022-12-07T11:59:45;1.57;;;1.30;;
6336;SDS011;3201;49.962;11.618;2022-12-07T12:02:16;1.47;;;1.37;;
6336;SDS011;3201;49.962;11.618;2022-12-07T12:04:58;3.03;;;1.87;;
6336;SDS011;3201;49.962;11.618;2022-12-07T12:07:31;3.83;;;1.40;;
6336;SDS011;3201;49.962;11.618;2022-12-07T12:10:02;1.70;;;1.60;;
6336;SDS011;3201;49.962;11.618;2022-12-07T12:15:38;3.67;;;1.47;;
6336;SDS011;3201;49.962;11.618;2022-12-07T12:18:16;2.43;;;1.67;;
6336;SDS011;3201;49.962;11.618;2022-12-07T12:20:50;4.03;;;1.87;;
6336;SDS011;3201;49.962;11.618;2022-12-07T12:23:19;2.17;;;1.83;;
6336;SDS011;3201;49.962;11.618;2022-12-07T12:28:30;3.57;;;1.83;;
6336;SDS011;3201;49.962;11.618;2022-12-07T12:33:48;2.07;;;1.43;;
6336;SDS011;3201;49.962;11.618;2022-12-07T12:38:52;1.93;;;1.50;;
6336;SDS011;3201;49.962;11.618;2022-12-07T12:57:35;2.53;;;1.30;;
6336;SDS011;3201;49.962;11.618;2022-12-07T13:00:02;2.83;;;1.10;;
6336;SDS011;3201;49.962;11.618;2022-12-07T13:02:55;2.20;;;1.43;;
6336;SDS011;3201;49.962;11.618;2022-12-07T13:05:22;2.17;;;1.27;;
6336;SDS011;3201;49.962;11.618;2022-12-07T13:07:51;3.00;;;1.70;;
6336;SDS011;3201;49.962;11.618;2022-12-07T13:20:48;1.57;;;1.20;;
6336;SDS011;3201;49.962;11.618;2022-12-07T13:23:16;2.20;;;0.90;;
6336;SDS011;3201;49.962;11.618;2022-12-07T13:25:45;1.87;;;1.23;;
6336;SDS011;3201;49.962;11.618;2022-12-07T13:28:18;3.47;;;1.43;;
6336;SDS011;3201;49.962;11.618;2022-12-07T13:30:56;4.17;;;1.40;;
6336;SDS011;3201;49.962;11.618;2022-12-07T13:33:27;3.53;;;1.57;;
6336;SDS011;3201;49.962;11.618;2022-12-07T13:35:53;4.17;;;1.90;;
6336;SDS011;3201;49.962;11.618;2022-12-07T13:38:22;5.33;;;2.37;;
6336;SDS011;3201;49.962;11.618;2022-12-07T13:41:22;7.37;;;1.90;;
6336;SDS011;3201;49.962;11.618;2022-12-07T13:44:39;1.50;;;1.30;;
6336;SDS011;3201;49.962;11.618;2022-12-07T13:46:31;16.87;;;1.83;;
6336;SDS011;3201;49.962;11.618;2022-12-07T13:49:00;6.00;;;2.17;;
6336;SDS011;3201;49.962;11.618;2022-12-07T13:51:26;7.73;;;1.87;;
6336;SDS011;3201;49.962;11.618;2022-12-07T13:53:54;5.57;;;1.87;;
6336;SDS011;3201;49.962;11.618;2022-12-07T13:56:21;9.90;;;1.97;;
6336;SDS011;3201;49.962;11.618;2022-12-07T13:58:48;6.93;;;2.13;;
6336;SDS011;3201;49.962;11.618;2022-12-07T14:01:14;5.10;;;2.00;;
6336;SDS011;3201;49.962;11.618;2022-12-07T14:03:39;18.20;;;2.50;;
6336;SDS011;3201;49.962;11.618;2022-12-07T14:06:06;10.00;;;2.00;;
6336;SDS011;3201;49.962;11.618;2022-12-07T14:08:41;4.10;;;2.40;;
6336;SDS011;3201;49.962;11.618;2022-12-07T14:11:08;10.10;;;2.27;;
6336;SDS011;3201;49.962;11.618;2022-12-07T14:13:39;7.10;;;2.60;;
6336;SDS011;3201;49.962;11.618;2022-12-07T14:16:40;6.30;;;2.07;;
6336;SDS011;3201;49.962;11.618;2022-12-07T14:18:57;8.17;;;2.20;;
6336;SDS011;3201;49.962;11.618;2022-12-07T14:21:24;7.70;;;2.10;;
6336;SDS011;3201;49.962;11.618;2022-12-07T14:24:23;8.77;;;2.30;;
6336;SDS011;3201;49.962;11.618;2022-12-07T14:26:42;5.53;;;2.00;;
6336;SDS011;3201;49.962;11.618;2022-12-07T14:29:39;12.73;;;2.33;;
6336;SDS011;3201;49.962;11.618;2022-12-07T14:31:56;7.73;;;1.70;;
6336;SDS011;3201;49.962;11.618;2022-12-07T14:34:23;13.07;;;2.37;;
6336;SDS011;3201;49.962;11.618;2022-12-07T14:36:49;7.60;;;2.20;;
6336;SDS011;3201;49.962;11.618;2022-12-07T14:39:14;8.43;;;2.20;;
6336;SDS011;3201;49.962;11.618;2022-12-07T14:41:40;7.10;;;1.67;;
6336;SDS011;3201;49.962;11.618;2022-12-07T14:44:21;4.03;;;1.90;;
6336;SDS011;3201;49.962;11.618;2022-12-07T14:46:48;6.47;;;2.60;;
6336;SDS011;3201;49.962;11.618;2022-12-07T14:49:14;2.90;;;1.50;;
6336;SDS011;3201;49.962;11.618;2022-12-07T14:51:39;3.63;;;1.50;;
6336;SDS011;3201;49.962;11.618;2022-12-07T14:54:06;4.80;;;1.97;;
6336;SDS011;3201;49.962;11.618;2022-12-07T14:56:38;5.80;;;1.83;;
6336;SDS011;3201;49.962;11.618;2022-12-07T14:59:03;9.80;;;1.93;;
6336;SDS011;3201;49.962;11.618;2022-12-07T15:01:28;10.03;;;2.30;;
6336;SDS011;3201;49.962;11.618;2022-12-07T15:03:53;3.93;;;1.90;;
6336;SDS011;3201;49.962;11.618;2022-12-07T15:06:19;3.40;;;1.80;;
6336;SDS011;3201;49.962;11.618;2022-12-07T15:08:44;4.07;;;2.30;;
6336;SDS011;3201;49.962;11.618;2022-12-07T15:11:13;4.67;;;1.90;;
6336;SDS011;3201;49.962;11.618;2022-12-07T15:13:39;7.17;;;1.93;;
6336;SDS011;3201;49.962;11.618;2022-12-07T15:16:25;6.67;;;2.23;;
6336;SDS011;3201;49.962;11.618;2022-12-07T15:18:50;4.23;;;1.83;;
6336;SDS011;3201;49.962;11.618;2022-12-07T15:21:16;4.60;;;1.80;;
6336;SDS011;3201;49.962;11.618;2022-12-07T15:23:41;3.70;;;1.40;;
6336;SDS011;3201;49.962;11.618;2022-12-07T15:26:07;10.37;;;1.70;;
6336;SDS011;3201;49.962;11.618;2022-12-07T15:28:33;8.37;;;2.10;;
6336;SDS011;3201;49.962;11.618;2022-12-07T15:30:58;6.60;;;2.23;;
6336;SDS011;3201;49.962;11.618;2022-12-07T15:33:24;5.87;;;1.40;;
6336;SDS011;3201;49.962;11.618;2022-12-07T15:35:49;7.73;;;1.73;;
6336;SDS011;3201;49.962;11.618;2022-12-07T15:38:14;4.00;;;2.13;;
6336;SDS011;3201;49.962;11.618;2022-12-07T15:40:40;6.07;;;2.30;;
6336;SDS011;3201;49.962;11.618;2022-12-07T15:43:05;4.83;;;1.80;;
6336;SDS011;3201;49.962;11.618;2022-12-07T15:45:50;6.40;;;2.00;;
6336;SDS011;3201;49.962;11.618;2022-12-07T15:48:16;9.60;;;1.97;;
6336;SDS011;3201;49.962;11.618;2022-12-07T15:50:41;5.47;;;1.97;;
6336;SDS011;3201;49.962;11.618;2022-12-07T15:53:07;7.30;;;1.87;;
6336;SDS011;3201;49.962;11.618;2022-12-07T15:55:32;4.50;;;1.60;;
6336;SDS011;3201;49.962;11.618;2022-12-07T15:57:57;4.47;;;1.90;;
6336;SDS011;3201;49.962;11.618;2022-12-07T16:00:23;6.00;;;1.80;;
6336;SDS011;3201;49.962;11.618;2022-12-07T16:02:48;7.10;;;1.77;;
6336;SDS011;3201;49.962;11.618;2022-12-07T16:05:13;2.07;;;1.47;;
6336;SDS011;3201;49.962;11.618;2022-12-07T16:07:39;5.17;;;1.80;;
6336;SDS011;3201;49.962;11.618;2022-12-07T16:10:04;4.30;;;1.90;;
6336;SDS011;3201;49.962;11.618;2022-12-07T16:12:30;2.17;;;1.80;;
6336;SDS011;3201;49.962;11.618;2022-12-07T16:14:55;4.03;;;1.77;;
6336;SDS011;3201;49.962;11.618;2022-12-07T16:17:21;7.40;;;2.13;;
6336;SDS011;3201;49.962;11.618;2022-12-07T16:19:46;5.17;;;1.60;;
6336;SDS011;3201;49.962;11.618;2022-12-07T16:22:11;3.90;;;1.50;;
6336;SDS011;3201;49.962;11.618;2022-12-07T16:24:36;5.40;;;1.63;;
6336;SDS011;3201;49.962;11.618;2022-12-07T16:27:02;1.93;;;1.73;;
6336;SDS011;3201;49.962;11.618;2022-12-07T16:29:27;7.70;;;1.93;;
6336;SDS011;3201;49.962;11.618;2022-12-07T16:31:52;6.03;;;1.77;;
6336;SDS011;3201;49.962;11.618;2022-12-07T16:34:18;3.60;;;1.90;;
6336;SDS011;3201;49.962;11.618;2022-12-07T16:36:44;3.47;;;1.63;;
6336;SDS011;3201;49.962;11.618;2022-12-07T16:39:09;2.23;;;1.60;;
6336;SDS011;3201;49.962;11.618;2022-12-07T16:41:35;1.80;;;1.37;;